createdAt,value
2022-10-21T00:00:09.693Z,8.80
2022-10-21T00:02:36.486Z,9.15
2022-10-21T00:05:04.238Z,8.18
2022-10-21T00:07:30.614Z,8.75
2022-10-21T00:09:56.943Z,8.25
2022-10-21T00:12:23.339Z,8.02
2022-10-21T00:14:52.531Z,8.57
2022-10-21T00:17:21.294Z,8.30
2022-10-21T00:19:47.607Z,8.60
2022-10-21T00:22:13.959Z,8.40
2022-10-21T00:24:40.291Z,8.27
2022-10-21T00:27:07.000Z,7.65
2022-10-21T00:29:33.395Z,8.98
2022-10-21T00:31:59.727Z,8.95
2022-10-21T00:34:30.668Z,9.18
2022-10-21T00:36:57.342Z,8.55
2022-10-21T00:39:23.677Z,8.50
2022-10-21T00:41:50.013Z,9.27
2022-10-21T00:44:16.503Z,8.13
2022-10-21T00:46:52.564Z,8.25
2022-10-21T00:49:33.802Z,8.68
2022-10-21T00:52:03.700Z,9.07
2022-10-21T00:54:31.331Z,9.15
2022-10-21T00:56:58.910Z,8.75
2022-10-21T00:59:29.731Z,8.57
2022-10-21T01:01:56.107Z,8.35
2022-10-21T01:04:23.110Z,8.57
2022-10-21T01:06:50.174Z,8.77
2022-10-21T01:09:18.909Z,8.73
2022-10-21T01:11:47.413Z,9.38
2022-10-21T01:14:45.215Z,9.40
2022-10-21T01:17:45.985Z,8.80
2022-10-21T01:20:38.813Z,8.40
2022-10-21T01:23:14.171Z,9.75
2022-10-21T01:26:17.706Z,9.20
2022-10-21T01:29:19.950Z,9.30
2022-10-21T01:31:48.874Z,8.90
2022-10-21T01:34:28.773Z,9.32
2022-10-21T01:37:01.175Z,9.85
2022-10-21T01:39:37.789Z,9.35
2022-10-21T01:42:20.767Z,9.52
2022-10-21T01:44:52.811Z,9.77
2022-10-21T01:47:31.323Z,10.27
2022-10-21T01:50:11.023Z,9.45
2022-10-21T01:52:41.210Z,10.73
2022-10-21T01:55:12.582Z,9.65
2022-10-21T01:57:46.863Z,9.65
2022-10-21T02:00:13.557Z,9.88
2022-10-21T02:02:45.971Z,9.45
2022-10-21T02:05:23.106Z,9.65
2022-10-21T02:07:50.741Z,9.55
2022-10-21T02:10:18.965Z,9.88
2022-10-21T02:12:47.877Z,8.77
2022-10-21T02:15:16.102Z,10.40
2022-10-21T02:17:47.950Z,10.15
2022-10-21T02:20:17.262Z,9.85
2022-10-21T02:22:46.832Z,9.60
2022-10-21T02:25:21.751Z,9.82
2022-10-21T02:27:49.053Z,10.10
2022-10-21T02:30:16.239Z,9.52
2022-10-21T02:33:11.460Z,10.82
2022-10-21T02:35:50.862Z,10.93
2022-10-21T02:38:31.740Z,10.57
2022-10-21T02:41:09.318Z,9.77
2022-10-21T02:43:41.234Z,10.65
2022-10-21T02:46:10.458Z,9.65
2022-10-21T02:48:38.411Z,9.25
2022-10-21T02:51:07.456Z,10.30
2022-10-21T02:53:34.434Z,9.93
2022-10-21T02:56:00.929Z,11.02
2022-10-21T02:58:28.479Z,10.55
2022-10-21T03:00:54.922Z,9.88
2022-10-21T03:03:21.554Z,10.35
2022-10-21T03:05:48.167Z,10.15
2022-10-21T03:08:14.525Z,10.45
2022-10-21T03:10:40.900Z,10.55
2022-10-21T03:13:07.237Z,10.32
2022-10-21T03:15:33.593Z,12.10
2022-10-21T03:17:59.960Z,10.82
2022-10-21T03:20:26.368Z,11.43
2022-10-21T03:22:52.795Z,11.27
2022-10-21T03:25:19.495Z,11.02
2022-10-21T03:27:45.824Z,10.77
2022-10-21T03:30:12.177Z,10.70
2022-10-21T03:32:38.817Z,11.15
2022-10-21T03:35:05.855Z,11.75
2022-10-21T03:37:32.258Z,12.73
2022-10-21T03:39:59.223Z,11.32
2022-10-21T03:42:25.599Z,12.00
2022-10-21T03:44:51.931Z,11.25
2022-10-21T03:47:18.330Z,11.43
2022-10-21T03:49:44.716Z,10.77
2022-10-21T03:52:11.124Z,11.15
2022-10-21T03:54:37.482Z,11.55
2022-10-21T03:57:03.999Z,12.68
2022-10-21T03:59:30.340Z,12.30
2022-10-21T04:01:56.783Z,12.15
2022-10-21T04:04:23.139Z,11.63
2022-10-21T04:06:49.707Z,11.68
2022-10-21T04:09:16.245Z,11.55
2022-10-21T04:11:42.649Z,11.15
2022-10-21T04:14:11.608Z,12.05
2022-10-21T04:16:41.270Z,11.13
2022-10-21T04:19:07.607Z,11.18
2022-10-21T04:21:34.095Z,12.27
2022-10-21T04:24:00.411Z,11.77
2022-10-21T04:26:26.751Z,11.80
2022-10-21T04:28:53.156Z,12.23
2022-10-21T04:31:19.486Z,12.23
2022-10-21T04:33:45.909Z,11.68
2022-10-21T04:36:12.302Z,11.63
2022-10-21T04:38:38.696Z,11.63
2022-10-21T04:41:05.234Z,11.43
2022-10-21T04:43:31.572Z,11.10
2022-10-21T04:45:57.898Z,11.40
2022-10-21T04:48:24.450Z,10.75
2022-10-21T04:50:52.516Z,10.95
2022-10-21T04:53:19.007Z,11.50
2022-10-21T04:55:45.479Z,11.15
2022-10-21T04:58:11.844Z,11.50
2022-10-21T05:00:38.276Z,11.38
2022-10-21T05:03:04.689Z,11.20
2022-10-21T05:05:31.130Z,10.88
2022-10-21T05:07:57.691Z,11.00
2022-10-21T05:10:25.448Z,11.10
2022-10-21T05:12:51.858Z,11.02
2022-10-21T05:15:18.470Z,11.02
2022-10-21T05:17:44.878Z,10.88
2022-10-21T05:20:11.491Z,11.63
2022-10-21T05:22:38.231Z,11.20
2022-10-21T05:25:05.086Z,11.07
2022-10-21T05:27:31.468Z,11.60
2022-10-21T05:29:58.356Z,11.32
2022-10-21T05:32:24.775Z,11.57
2022-10-21T05:34:51.192Z,11.63
2022-10-21T05:37:17.543Z,11.05
2022-10-21T05:39:43.949Z,12.63
2022-10-21T05:42:10.336Z,11.50
2022-10-21T05:44:36.695Z,12.13
2022-10-21T05:47:03.258Z,11.90
2022-10-21T05:49:29.595Z,11.20
2022-10-21T05:51:56.037Z,12.13
2022-10-21T05:54:22.666Z,11.65
2022-10-21T05:56:49.055Z,11.90
2022-10-21T05:59:15.449Z,11.80
2022-10-21T06:01:41.818Z,11.90
2022-10-21T06:04:08.167Z,11.32
2022-10-21T06:06:34.542Z,11.68
2022-10-21T06:09:00.959Z,12.05
2022-10-21T06:11:27.354Z,12.30
2022-10-21T06:13:53.734Z,11.65
2022-10-21T06:16:20.084Z,11.88
2022-10-21T06:18:46.426Z,12.20
2022-10-21T06:21:12.815Z,11.57
2022-10-21T06:23:39.190Z,11.55
2022-10-21T06:26:12.460Z,12.70
2022-10-21T06:28:40.635Z,11.55
2022-10-21T06:31:08.124Z,12.45
2022-10-21T06:33:35.210Z,12.27
2022-10-21T06:36:01.538Z,12.90
2022-10-21T06:38:27.861Z,11.35
2022-10-21T06:41:01.738Z,10.93
2022-10-21T06:43:28.134Z,11.85
2022-10-21T06:46:02.468Z,12.25
2022-10-21T06:48:28.921Z,12.45
2022-10-21T06:51:04.857Z,11.82
2022-10-21T06:56:06.252Z,11.60
2022-10-21T06:58:32.768Z,12.38
2022-10-21T07:00:59.195Z,11.93
2022-10-21T07:03:25.609Z,12.85
2022-10-21T07:05:58.176Z,12.90
2022-10-21T07:08:39.650Z,13.20
2022-10-21T07:11:13.542Z,13.73
2022-10-21T07:13:40.040Z,12.90
2022-10-21T07:16:11.634Z,12.48
2022-10-21T07:18:40.537Z,13.30
2022-10-21T07:21:13.597Z,13.35
2022-10-21T07:23:39.942Z,13.13
2022-10-21T07:26:07.299Z,13.25
2022-10-21T07:28:34.614Z,13.50
2022-10-21T07:31:01.079Z,12.60
2022-10-21T07:33:27.708Z,12.85
2022-10-21T07:36:16.042Z,12.77
2022-10-21T07:38:46.567Z,12.25
2022-10-21T07:41:18.180Z,12.90
2022-10-21T07:43:44.657Z,13.25
2022-10-21T07:46:11.266Z,12.25
2022-10-21T07:48:38.103Z,12.63
2022-10-21T07:51:07.292Z,12.93
2022-10-21T07:53:34.417Z,12.27
2022-10-21T07:56:03.045Z,13.05
2022-10-21T07:58:30.759Z,12.25
2022-10-21T08:00:58.898Z,12.68
2022-10-21T08:03:25.418Z,12.73
2022-10-21T08:05:51.957Z,12.93
2022-10-21T08:08:21.592Z,12.57
2022-10-21T08:13:19.660Z,11.93
2022-10-21T08:15:56.988Z,11.05
2022-10-21T08:18:24.338Z,11.73
2022-10-21T08:20:50.788Z,10.85
2022-10-21T08:23:20.941Z,11.02
2022-10-21T08:25:53.461Z,10.70
2022-10-21T08:28:21.808Z,10.35
2022-10-21T08:30:51.400Z,10.27
2022-10-21T08:33:18.471Z,9.98
2022-10-21T08:35:45.259Z,9.65
2022-10-21T08:38:11.680Z,9.45
2022-10-21T08:40:45.137Z,9.63
2022-10-21T08:43:31.578Z,9.60
2022-10-21T08:48:37.412Z,8.75
2022-10-21T08:53:44.742Z,7.85
2022-10-21T08:56:19.542Z,7.63
2022-10-21T08:58:50.874Z,8.18
2022-10-21T09:01:26.409Z,8.18
2022-10-21T09:03:58.999Z,7.85
2022-10-21T09:06:49.195Z,8.23
2022-10-21T09:09:34.679Z,7.82
2022-10-21T09:12:07.122Z,7.22
2022-10-21T09:14:56.743Z,7.93
2022-10-21T09:17:47.968Z,7.50
2022-10-21T09:20:17.417Z,7.35
2022-10-21T09:22:46.625Z,8.55
2022-10-21T09:25:38.028Z,7.57
2022-10-21T09:28:11.985Z,7.13
2022-10-21T09:30:40.686Z,7.50
2022-10-21T09:33:21.824Z,7.72
2022-10-21T09:35:54.714Z,6.53
2022-10-21T09:38:45.556Z,7.20
2022-10-21T09:43:50.193Z,6.70
2022-10-21T09:46:17.285Z,6.32
2022-10-21T09:51:40.256Z,6.32
2022-10-21T09:54:13.506Z,6.53
2022-10-21T09:56:52.083Z,6.68
2022-10-21T09:59:21.511Z,6.38
2022-10-21T10:01:49.627Z,6.68
2022-10-21T10:04:33.607Z,6.50
2022-10-21T10:07:30.174Z,6.25
2022-10-21T10:09:56.527Z,6.80
2022-10-21T10:12:28.660Z,6.13
2022-10-21T10:14:58.509Z,6.15
2022-10-21T10:17:37.134Z,6.45
2022-10-21T10:20:21.735Z,6.57
2022-10-21T10:22:58.218Z,6.75
2022-10-21T10:25:29.453Z,6.35
2022-10-21T10:28:10.507Z,6.43
2022-10-21T10:30:41.441Z,6.05
2022-10-21T10:33:20.748Z,6.10
2022-10-21T10:35:54.303Z,6.35
2022-10-21T10:38:26.824Z,6.00
2022-10-21T10:40:56.347Z,5.80
2022-10-21T10:43:29.586Z,6.18
2022-10-21T10:46:03.526Z,5.85
2022-10-21T10:48:45.199Z,6.05
2022-10-21T10:51:33.471Z,5.90
2022-10-21T10:54:28.536Z,6.10
2022-10-21T10:56:58.014Z,5.25
2022-10-21T10:59:35.059Z,5.25
2022-10-21T11:02:22.041Z,5.43
2022-10-21T11:05:07.028Z,5.82
2022-10-21T11:07:39.230Z,5.60
2022-10-21T11:10:43.613Z,5.13
2022-10-21T11:13:16.754Z,5.53
2022-10-21T11:16:26.436Z,4.88
2022-10-21T11:19:04.833Z,4.78
2022-10-21T11:21:39.775Z,5.15
2022-10-21T11:24:17.835Z,5.03
2022-10-21T11:26:49.549Z,5.47
2022-10-21T11:29:33.093Z,5.45
2022-10-21T11:32:14.459Z,4.90
2022-10-21T11:34:52.991Z,5.13
2022-10-21T11:37:39.776Z,5.03
2022-10-21T11:40:18.196Z,5.03
2022-10-21T11:42:51.106Z,5.00
2022-10-21T11:45:30.302Z,4.93
2022-10-21T11:48:21.011Z,5.45
2022-10-21T11:51:26.318Z,4.32
2022-10-21T11:54:12.395Z,4.70
2022-10-21T11:56:48.938Z,4.82
2022-10-21T11:59:31.687Z,5.18
2022-10-21T12:02:16.627Z,5.50
2022-10-21T12:04:55.568Z,5.10
2022-10-21T12:07:36.566Z,4.93
2022-10-21T12:10:18.615Z,5.38
2022-10-21T12:12:49.014Z,4.78
2022-10-21T12:15:27.543Z,5.50
2022-10-21T12:17:55.505Z,5.43
2022-10-21T12:20:26.844Z,4.93
2022-10-21T12:22:59.287Z,4.93
2022-10-21T12:25:51.063Z,4.40
2022-10-21T12:28:47.450Z,5.25
2022-10-21T12:31:32.574Z,4.55
2022-10-21T12:33:59.330Z,5.00
2022-10-21T12:36:43.285Z,5.10
2022-10-21T12:39:16.774Z,4.85
2022-10-21T12:41:47.858Z,4.93
2022-10-21T12:44:27.340Z,4.97
2022-10-21T12:46:57.011Z,4.30
2022-10-21T12:49:32.820Z,4.70
2022-10-21T12:52:02.178Z,4.65
2022-10-21T12:54:31.541Z,4.40
2022-10-21T12:57:04.654Z,4.63
2022-10-21T12:59:33.909Z,4.53
2022-10-21T13:02:06.296Z,4.47
2022-10-21T13:04:32.622Z,4.57
2022-10-21T13:07:04.469Z,4.40
2022-10-21T13:10:02.567Z,4.20
2022-10-21T13:12:31.647Z,4.13
2022-10-21T13:15:02.725Z,4.63
2022-10-21T13:17:48.806Z,4.07
2022-10-21T13:20:15.076Z,3.92
2022-10-21T13:23:01.956Z,4.07
2022-10-21T13:25:32.579Z,3.50
2022-10-21T13:28:18.012Z,3.63
2022-10-21T13:30:50.282Z,4.03
2022-10-21T13:33:19.880Z,3.40
2022-10-21T13:35:48.807Z,3.30
2022-10-21T13:38:23.931Z,3.40
2022-10-21T13:40:59.594Z,3.47
2022-10-21T13:43:36.692Z,3.63
2022-10-21T13:46:08.227Z,3.50
2022-10-21T13:48:39.624Z,3.50
2022-10-21T13:51:15.795Z,3.25
2022-10-21T13:53:45.651Z,2.88
2022-10-21T13:56:21.647Z,3.10
2022-10-21T14:01:21.714Z,3.13
2022-10-21T14:06:31.709Z,3.08
2022-10-21T14:09:04.210Z,2.83
2022-10-21T14:11:36.520Z,3.00
2022-10-21T14:14:08.304Z,3.03
2022-10-21T14:16:38.352Z,3.25
2022-10-21T14:19:20.686Z,2.88
2022-10-21T14:21:52.410Z,3.22
2022-10-21T14:24:46.603Z,2.90
2022-10-21T14:27:18.281Z,2.90
2022-10-21T14:29:45.823Z,2.80
2022-10-21T14:32:18.040Z,2.67
2022-10-21T14:35:21.332Z,3.13
2022-10-21T14:37:51.170Z,3.47
2022-10-21T14:40:21.798Z,3.83
2022-10-21T14:42:53.165Z,4.60
2022-10-21T14:45:27.778Z,4.60
2022-10-21T14:48:07.252Z,4.85
2022-10-21T14:50:34.327Z,3.90
2022-10-21T14:53:00.840Z,3.53
2022-10-21T14:55:30.599Z,3.50
2022-10-21T14:58:04.806Z,3.30
2022-10-21T15:00:41.566Z,3.10
2022-10-21T15:03:12.819Z,3.25
2022-10-21T15:05:41.415Z,3.25
2022-10-21T15:08:21.801Z,3.15
2022-10-21T15:10:57.349Z,3.53
2022-10-21T15:13:25.835Z,4.30
2022-10-21T15:15:54.653Z,4.13
2022-10-21T15:18:32.673Z,3.38
2022-10-21T15:21:03.193Z,3.05
2022-10-21T15:23:34.162Z,3.45
2022-10-21T15:26:05.778Z,3.20
2022-10-21T15:28:34.091Z,2.38
2022-10-21T15:31:02.346Z,3.20
2022-10-21T15:33:28.963Z,2.65
2022-10-21T15:36:02.736Z,2.63
2022-10-21T15:38:29.276Z,2.85
2022-10-21T15:40:55.699Z,2.83
2022-10-21T15:43:22.171Z,3.28
2022-10-21T15:45:48.804Z,2.78
2022-10-21T15:48:15.528Z,2.80
2022-10-21T15:50:42.921Z,3.10
2022-10-21T15:53:09.533Z,2.55
2022-10-21T15:55:38.166Z,2.65
2022-10-21T15:58:05.997Z,2.88
2022-10-21T16:00:38.543Z,2.85
2022-10-21T16:03:07.377Z,2.40
2022-10-21T16:05:34.003Z,2.72
2022-10-21T16:08:00.533Z,2.95
2022-10-21T16:10:31.068Z,2.65
2022-10-21T16:12:58.023Z,2.97
2022-10-21T16:15:24.724Z,2.65
2022-10-21T16:17:53.854Z,3.10
2022-10-21T16:20:27.022Z,2.78
2022-10-21T16:22:53.746Z,2.60
2022-10-21T16:25:20.312Z,2.92
2022-10-21T16:28:02.718Z,3.13
2022-10-21T16:30:39.261Z,3.40
2022-10-21T16:33:06.163Z,3.85
2022-10-21T16:35:32.548Z,5.13
2022-10-21T16:37:58.956Z,6.35
2022-10-21T16:40:31.798Z,6.93
2022-10-21T16:42:58.357Z,6.03
2022-10-21T16:45:29.534Z,4.70
2022-10-21T16:47:58.310Z,4.75
2022-10-21T16:50:33.308Z,5.22
2022-10-21T16:53:01.959Z,5.57
2022-10-21T16:55:28.479Z,5.40
2022-10-21T16:57:55.465Z,5.10
2022-10-21T17:00:21.826Z,4.82
2022-10-21T17:02:49.310Z,4.85
2022-10-21T17:05:15.767Z,4.55
2022-10-21T17:07:42.452Z,4.57
2022-10-21T17:10:09.720Z,4.47
2022-10-21T17:12:36.403Z,4.97
2022-10-21T17:15:03.467Z,4.40
2022-10-21T17:17:45.801Z,4.22
2022-10-21T17:20:12.417Z,4.18
2022-10-21T17:22:38.775Z,3.97
2022-10-21T17:25:05.463Z,4.53
2022-10-21T17:27:31.865Z,4.72
2022-10-21T17:29:58.215Z,5.00
2022-10-21T17:32:24.912Z,6.43
2022-10-21T17:34:51.336Z,10.07
2022-10-21T17:37:18.005Z,10.63
2022-10-21T17:39:44.487Z,8.90
2022-10-21T17:42:17.092Z,7.72
2022-10-21T17:44:43.824Z,6.93
2022-10-21T17:47:10.509Z,6.15
2022-10-21T17:49:36.989Z,5.90
2022-10-21T17:52:03.367Z,4.78
2022-10-21T17:54:31.717Z,4.28
2022-10-21T17:57:00.595Z,4.22
2022-10-21T17:59:26.964Z,3.92
2022-10-21T18:01:53.433Z,4.22
2022-10-21T18:04:19.979Z,3.63
2022-10-21T18:06:46.341Z,4.05
2022-10-21T18:09:12.832Z,4.38
2022-10-21T18:11:39.441Z,4.60
2022-10-21T18:14:05.815Z,4.63
2022-10-21T18:16:36.420Z,3.78
2022-10-21T18:19:03.256Z,4.63
2022-10-21T18:21:30.375Z,4.22
2022-10-21T18:23:56.858Z,8.50
2022-10-21T18:26:31.185Z,10.38
2022-10-21T18:29:03.943Z,9.18
2022-10-21T18:31:34.405Z,8.73
2022-10-21T18:34:03.811Z,7.97
2022-10-21T18:36:30.713Z,9.52
2022-10-21T18:38:58.849Z,8.23
2022-10-21T18:41:26.111Z,7.82
2022-10-21T18:44:00.286Z,7.53
2022-10-21T18:46:27.514Z,7.03
2022-10-21T18:48:53.917Z,5.97
2022-10-21T18:51:23.099Z,6.20
2022-10-21T18:53:52.842Z,6.20
2022-10-21T18:56:21.823Z,5.53
2022-10-21T18:58:49.201Z,5.68
2022-10-21T19:01:16.189Z,5.10
2022-10-21T19:03:43.105Z,4.97
2022-10-21T19:06:45.299Z,5.38
2022-10-21T19:09:14.886Z,4.97
2022-10-21T19:11:42.802Z,5.47
2022-10-21T19:14:13.026Z,6.15
2022-10-21T19:16:40.987Z,5.75
2022-10-21T19:19:08.114Z,5.68
2022-10-21T19:21:34.545Z,6.10
2022-10-21T19:24:03.077Z,5.47
2022-10-21T19:26:31.436Z,6.22
2022-10-21T19:29:07.117Z,6.82
2022-10-21T19:31:36.295Z,6.85
2022-10-21T19:34:04.007Z,6.22
2022-10-21T19:36:30.522Z,6.15
2022-10-21T19:38:57.027Z,7.07
2022-10-21T19:41:23.473Z,6.35
2022-10-21T19:43:53.405Z,7.10
2022-10-21T19:46:24.836Z,6.35
2022-10-21T19:48:52.598Z,6.07
2022-10-21T19:51:21.542Z,5.45
2022-10-21T19:53:48.684Z,5.75
2022-10-21T19:56:16.176Z,6.18
2022-10-21T19:58:48.687Z,5.90
2022-10-21T20:01:21.411Z,5.90
2022-10-21T20:03:48.967Z,6.25
2022-10-21T20:06:24.721Z,5.57
2022-10-21T20:08:54.162Z,5.10
2022-10-21T20:11:21.843Z,4.60
2022-10-21T20:13:49.420Z,6.38
2022-10-21T20:16:18.295Z,7.20
2022-10-21T20:18:45.198Z,7.50
2022-10-21T20:21:12.408Z,6.78
2022-10-21T20:23:38.775Z,7.07
2022-10-21T20:26:06.051Z,7.05
2022-10-21T20:28:32.535Z,6.80
2022-10-21T20:31:02.038Z,6.45
2022-10-21T20:33:30.478Z,6.15
2022-10-21T20:35:57.282Z,6.15
2022-10-21T20:38:23.987Z,5.80
2022-10-21T20:41:06.593Z,6.28
2022-10-21T20:43:38.145Z,5.82
2022-10-21T20:46:06.863Z,6.05
2022-10-21T20:48:34.803Z,6.18
2022-10-21T20:51:06.868Z,5.72
2022-10-21T20:53:33.514Z,5.60
2022-10-21T20:56:00.846Z,6.00
2022-10-21T20:58:27.363Z,6.32
2022-10-21T21:00:53.707Z,5.90
2022-10-21T21:03:20.231Z,5.30
2022-10-21T21:05:46.711Z,5.85
2022-10-21T21:08:13.722Z,5.85
2022-10-21T21:10:40.161Z,5.55
2022-10-21T21:13:06.699Z,6.13
2022-10-21T21:15:33.040Z,5.85
2022-10-21T21:18:02.084Z,5.80
2022-10-21T21:20:28.666Z,5.82
2022-10-21T21:22:55.707Z,5.88
2022-10-21T21:25:22.051Z,6.80
2022-10-21T21:27:48.551Z,7.40
2022-10-21T21:30:14.901Z,7.65
2022-10-21T21:32:41.473Z,8.45
2022-10-21T21:35:08.650Z,10.57
2022-10-21T21:37:35.031Z,15.63
2022-10-21T21:40:01.430Z,17.25
2022-10-21T21:42:27.755Z,16.17
2022-10-21T21:44:54.066Z,14.93
2022-10-21T21:47:20.433Z,11.55
2022-10-21T21:49:46.764Z,10.23
2022-10-21T21:52:13.742Z,8.75
2022-10-21T21:54:40.051Z,10.35
2022-10-21T22:02:19.119Z,10.68
2022-10-21T22:04:45.984Z,14.05
2022-10-21T22:07:12.663Z,12.07
2022-10-21T22:09:39.095Z,11.30
2022-10-21T22:12:05.667Z,10.93
2022-10-21T22:14:32.034Z,10.10
2022-10-21T22:16:58.446Z,9.65
2022-10-21T22:19:25.315Z,8.98
2022-10-21T22:21:51.688Z,8.90
2022-10-21T22:24:18.255Z,9.10
2022-10-21T22:26:44.687Z,8.55
2022-10-21T22:29:11.079Z,10.82
2022-10-21T22:31:37.542Z,8.93
2022-10-21T22:34:06.507Z,7.72
2022-10-21T22:36:35.599Z,7.22
2022-10-21T22:39:03.446Z,6.70
2022-10-21T22:41:29.824Z,7.00
2022-10-21T22:43:56.187Z,6.50
2022-10-21T22:46:34.315Z,6.90
2022-10-21T22:49:04.977Z,6.60
2022-10-21T22:51:33.726Z,6.80
2022-10-21T22:54:01.191Z,8.18
2022-10-21T22:56:28.154Z,10.55
2022-10-21T22:58:54.622Z,10.52
2022-10-21T23:01:21.134Z,9.65
2022-10-21T23:03:47.527Z,8.25
2022-10-21T23:06:13.863Z,8.65
2022-10-21T23:08:40.309Z,8.63
2022-10-21T23:11:06.718Z,7.88
2022-10-21T23:13:33.250Z,7.68
2022-10-21T23:15:59.605Z,10.63
2022-10-21T23:18:26.121Z,11.70
2022-10-21T23:20:52.496Z,8.25
2022-10-21T23:23:18.810Z,7.03
2022-10-21T23:25:45.159Z,6.75
2022-10-21T23:28:11.817Z,6.85
2022-10-21T23:30:38.646Z,5.68
2022-10-21T23:33:05.103Z,8.95
2022-10-21T23:35:31.703Z,9.60
2022-10-21T23:37:59.245Z,9.85
2022-10-21T23:40:26.044Z,7.82
2022-10-21T23:42:52.417Z,6.82
2022-10-21T23:45:18.912Z,7.28
2022-10-21T23:47:45.267Z,6.75
2022-10-21T23:50:12.088Z,5.80
2022-10-21T23:52:38.672Z,6.28
2022-10-21T23:55:06.316Z,5.95
2022-10-21T23:57:33.079Z,5.95
2022-10-21T23:59:59.558Z,5.75
